Time;durP1;ratioP1;P1;durP2;ratioP2;P2;SDS_P1;SDS_P2;PMS_P1;PMS_P2;Temp;Humidity;BMP_temperature;BMP_pressure;BME280_temperature;BME280_humidity;BME280_pressure;Samples;Min_cycle;Max_cycle;Signal;HPM_P1;HPM_P2
2023/05/16 00:01:09;;;;;;;12.30;2.20;;;;;;;;;;5106699;27;20032;-75
2023/05/16 00:03:36;;;;;;;15.07;2.97;;;;;;;;;;5106618;28;20028;-75
2023/05/16 00:06:02;;;;;;;10.75;2.17;;;;;;;;;;5107937;27;20031;-74
2023/05/16 00:08:28;;;;;;;10.52;3.65;;;;;;;;;;5106360;28;20015;-75
2023/05/16 00:10:53;;;;;;;10.52;2.10;;;;;;;;;;5107224;27;20093;-75
2023/05/16 00:13:23;;;;;;;11.05;2.25;;;;;;;;;;5108011;27;20039;-75
2023/05/16 00:15:50;;;;;;;16.67;2.53;;;;;;;;;;5096295;27;20036;-75
2023/05/16 00:18:16;;;;;;;7.45;1.90;;;;;;;;;;5085731;28;20038;-74
2023/05/16 00:20:41;;;;;;;10.43;2.03;;;;;;;;;;5106807;27;20106;-75
2023/05/16 00:23:06;;;;;;;9.40;2.40;;;;;;;;;;5108868;28;20020;-74
2023/05/16 00:25:32;;;;;;;11.23;2.03;;;;;;;;;;5107446;27;20122;-75
2023/05/16 00:27:57;;;;;;;17.90;2.25;;;;;;;;;;5106603;28;20084;-75
2023/05/16 00:30:23;;;;;;;14.70;2.72;;;;;;;;;;5107600;27;20122;-75
2023/05/16 00:32:48;;;;;;;7.70;2.05;;;;;;;;;;5108304;27;20084;-75
2023/05/16 00:35:13;;;;;;;12.88;2.00;;;;;;;;;;5114714;27;20023;-75
2023/05/16 00:37:39;;;;;;;11.98;2.13;;;;;;;;;;5103000;27;20028;-74
2023/05/16 00:40:05;;;;;;;8.82;2.13;;;;;;;;;;5092048;28;20031;-74
2023/05/16 00:42:30;;;;;;;11.70;2.30;;;;;;;;;;5108801;27;20110;-75
2023/05/16 00:44:56;;;;;;;9.65;2.80;;;;;;;;;;5107038;27;20154;-75
2023/05/16 00:47:21;;;;;;;12.73;2.35;;;;;;;;;;5115606;28;20026;-75
2023/05/16 00:49:47;;;;;;;13.13;2.53;;;;;;;;;;5118971;27;20027;-75
2023/05/16 00:52:12;;;;;;;13.57;2.55;;;;;;;;;;5097908;28;20063;-75
2023/05/16 00:54:38;;;;;;;16.13;2.38;;;;;;;;;;5104900;27;20512;-75
2023/05/16 00:57:05;;;;;;;10.80;2.55;;;;;;;;;;5105870;27;20032;-75
2023/05/16 00:59:31;;;;;;;13.93;2.38;;;;;;;;;;5095416;28;20072;-75
2023/05/16 01:01:56;;;;;;;13.27;2.58;;;;;;;;;;5099417;27;20773;-75
2023/05/16 01:04:22;;;;;;;8.40;2.08;;;;;;;;;;5100609;27;20039;-75
2023/05/16 01:06:47;;;;;;;13.30;2.70;;;;;;;;;;5105753;28;20570;-74
2023/05/16 01:09:13;;;;;;;8.80;2.40;;;;;;;;;;5105654;28;20024;-74
2023/05/16 01:11:59;;;;;;;10.65;2.50;;;;;;;;;;5106002;28;20035;-75
2023/05/16 01:14:38;;;;;;;10.30;2.00;;;;;;;;;;5105570;28;20059;-75
2023/05/16 01:17:14;;;;;;;10.63;2.45;;;;;;;;;;5103262;27;20047;-74
2023/05/16 01:19:50;;;;;;;11.55;2.33;;;;;;;;;;5090629;28;20683;-75
2023/05/16 01:22:37;;;;;;;12.18;2.30;;;;;;;;;;5106274;27;20063;-75
2023/05/16 01:25:11;;;;;;;7.72;2.30;;;;;;;;;;5106600;27;20043;-74
2023/05/16 01:27:37;;;;;;;15.02;3.20;;;;;;;;;;5105170;28;20393;-74
2023/05/16 01:30:15;;;;;;;9.93;2.53;;;;;;;;;;5106944;27;20088;-74
2023/05/16 01:32:40;;;;;;;7.68;2.63;;;;;;;;;;5103955;28;20508;-75
2023/05/16 01:35:08;;;;;;;8.82;2.38;;;;;;;;;;5112236;27;20039;-74
2023/05/16 01:37:59;;;;;;;13.75;3.00;;;;;;;;;;5106576;27;20043;-75
2023/05/16 01:40:33;;;;;;;9.65;3.05;;;;;;;;;;5093299;28;20567;-75
2023/05/16 01:43:03;;;;;;;10.82;2.42;;;;;;;;;;5105729;27;20573;-75
2023/05/16 01:45:32;;;;;;;6.63;2.47;;;;;;;;;;5106580;27;20032;-74
2023/05/16 01:48:06;;;;;;;10.18;2.47;;;;;;;;;;5105083;27;20030;-75
2023/05/16 01:50:34;;;;;;;6.93;2.47;;;;;;;;;;5106379;28;20042;-74
2023/05/16 01:53:10;;;;;;;12.27;2.67;;;;;;;;;;5107165;27;20035;-75
2023/05/16 01:55:44;;;;;;;4.80;2.22;;;;;;;;;;5106416;27;20688;-74
2023/05/16 01:58:12;;;;;;;14.63;3.08;;;;;;;;;;5098576;27;20039;-74
2023/05/16 02:00:39;;;;;;;10.93;2.72;;;;;;;;;;5105900;27;20050;-75
2023/05/16 02:03:05;;;;;;;14.48;2.42;;;;;;;;;;5105536;27;20023;-75
2023/05/16 02:05:30;;;;;;;15.75;2.40;;;;;;;;;;5105037;28;20023;-75
2023/05/16 02:07:56;;;;;;;12.75;2.90;;;;;;;;;;5099873;27;20089;-74
2023/05/16 02:10:23;;;;;;;12.95;2.75;;;;;;;;;;5112863;27;20042;-75
2023/05/16 02:12:49;;;;;;;17.02;3.28;;;;;;;;;;5118157;28;20031;-74
2023/05/16 02:15:15;;;;;;;17.58;3.58;;;;;;;;;;5102520;27;20058;-74
2023/05/16 02:17:40;;;;;;;8.10;2.83;;;;;;;;;;5107609;28;20055;-75
2023/05/16 02:20:09;;;;;;;18.02;3.03;;;;;;;;;;5104617;28;20035;-74
2023/05/16 02:22:35;;;;;;;6.13;2.03;;;;;;;;;;5102259;28;20046;-74
2023/05/16 02:25:02;;;;;;;7.43;3.08;;;;;;;;;;5105665;27;20032;-75
2023/05/16 02:27:27;;;;;;;10.05;2.50;;;;;;;;;;5113240;27;20102;-75
2023/05/16 02:29:53;;;;;;;7.30;2.40;;;;;;;;;;5107922;27;20027;-75
2023/05/16 02:32:18;;;;;;;14.05;2.45;;;;;;;;;;5105355;27;20035;-75
2023/05/16 02:34:43;;;;;;;7.20;2.40;;;;;;;;;;5117575;27;20575;-75
2023/05/16 02:37:09;;;;;;;5.43;1.95;;;;;;;;;;5112742;27;20487;-74
2023/05/16 02:39:34;;;;;;;13.52;2.63;;;;;;;;;;5106856;27;20251;-74
2023/05/16 02:41:59;;;;;;;11.02;2.58;;;;;;;;;;5101802;27;21215;-75
2023/05/16 02:44:25;;;;;;;6.60;2.22;;;;;;;;;;5108775;27;20020;-75
2023/05/16 02:46:50;;;;;;;9.93;3.08;;;;;;;;;;5110581;28;20036;-75
2023/05/16 02:49:16;;;;;;;15.13;2.53;;;;;;;;;;5112457;27;20031;-75
2023/05/16 02:51:41;;;;;;;9.82;2.67;;;;;;;;;;5110444;28;20710;-75
2023/05/16 02:54:08;;;;;;;8.00;2.30;;;;;;;;;;5109142;27;20046;-75
2023/05/16 02:56:34;;;;;;;8.27;3.53;;;;;;;;;;5106553;27;20027;-75
2023/05/16 02:59:00;;;;;;;12.82;2.30;;;;;;;;;;5111413;27;20408;-75
2023/05/16 03:01:25;;;;;;;8.85;2.00;;;;;;;;;;5110571;28;20040;-75
2023/05/16 03:03:51;;;;;;;11.00;2.60;;;;;;;;;;5110471;27;20028;-75
2023/05/16 03:06:16;;;;;;;7.88;2.53;;;;;;;;;;5109222;27;20097;-75
2023/05/16 03:08:41;;;;;;;9.45;2.80;;;;;;;;;;5107416;27;20035;-75
2023/05/16 03:11:08;;;;;;;8.20;2.85;;;;;;;;;;5110807;28;20044;-75
2023/05/16 03:13:33;;;;;;;9.50;2.88;;;;;;;;;;5109321;27;20074;-75
2023/05/16 03:15:59;;;;;;;10.90;2.40;;;;;;;;;;5116334;27;20050;-75
2023/05/16 03:18:24;;;;;;;8.27;2.85;;;;;;;;;;5112334;27;20055;-75
2023/05/16 03:20:51;;;;;;;16.40;3.17;;;;;;;;;;5111883;27;20026;-74
2023/05/16 03:23:18;;;;;;;11.50;2.40;;;;;;;;;;5110668;27;20032;-75
2023/05/16 03:25:45;;;;;;;13.25;3.00;;;;;;;;;;5107007;27;20432;-75
2023/05/16 03:28:11;;;;;;;19.15;3.15;;;;;;;;;;5113104;27;20031;-75
2023/05/16 03:30:36;;;;;;;5.43;2.10;;;;;;;;;;5106982;27;20476;-75
2023/05/16 03:33:03;;;;;;;11.30;2.70;;;;;;;;;;5113783;27;20401;-75
2023/05/16 03:35:30;;;;;;;7.25;2.47;;;;;;;;;;5131028;27;20050;-75
2023/05/16 03:37:55;;;;;;;8.63;2.75;;;;;;;;;;5108604;27;20039;-75
2023/05/16 03:40:21;;;;;;;8.07;2.70;;;;;;;;;;5092341;28;20115;-75
2023/05/16 03:42:46;;;;;;;7.50;2.15;;;;;;;;;;5101681;27;20035;-75
2023/05/16 03:45:12;;;;;;;12.75;3.22;;;;;;;;;;5108584;27;20124;-75
2023/05/16 03:47:37;;;;;;;15.02;2.88;;;;;;;;;;5106577;28;20022;-74
2023/05/16 03:50:04;;;;;;;10.93;2.47;;;;;;;;;;5102865;27;20046;-75
2023/05/16 03:52:29;;;;;;;8.75;3.03;;;;;;;;;;5107270;28;20739;-75
2023/05/16 03:54:54;;;;;;;11.30;3.15;;;;;;;;;;5106361;28;20027;-75
2023/05/16 03:57:20;;;;;;;17.30;2.95;;;;;;;;;;5108657;27;20096;-75
2023/05/16 03:59:45;;;;;;;8.32;2.80;;;;;;;;;;5106789;27;20171;-74
2023/05/16 04:02:11;;;;;;;11.45;2.70;;;;;;;;;;5111310;27;20027;-75
2023/05/16 04:04:36;;;;;;;12.38;2.80;;;;;;;;;;5099497;27;20048;-75
2023/05/16 04:07:02;;;;;;;21.20;3.70;;;;;;;;;;5108507;28;20051;-75
2023/05/16 04:09:27;;;;;;;9.27;3.00;;;;;;;;;;5106975;27;20046;-75
2023/05/16 04:11:55;;;;;;;9.82;3.15;;;;;;;;;;5101080;27;20738;-75
2023/05/16 04:14:20;;;;;;;15.55;2.70;;;;;;;;;;5106662;27;20054;-75
2023/05/16 04:16:46;;;;;;;10.10;2.70;;;;;;;;;;5106573;28;20470;-75
2023/05/16 04:19:11;;;;;;;7.90;2.88;;;;;;;;;;5107584;27;20067;-75
2023/05/16 04:21:37;;;;;;;12.45;2.58;;;;;;;;;;5105274;27;20096;-75
2023/05/16 04:24:02;;;;;;;8.98;3.13;;;;;;;;;;5110357;27;20047;-75
2023/05/16 04:26:29;;;;;;;6.90;2.45;;;;;;;;;;5107330;28;20020;-75
2023/05/16 04:28:54;;;;;;;9.52;2.35;;;;;;;;;;5107574;27;20061;-74
2023/05/16 04:31:21;;;;;;;9.43;2.42;;;;;;;;;;5107770;27;20060;-75
2023/05/16 04:33:47;;;;;;;7.82;2.15;;;;;;;;;;5107618;27;20032;-75
2023/05/16 04:36:13;;;;;;;12.43;2.80;;;;;;;;;;5113026;27;20161;-74
2023/05/16 04:38:38;;;;;;;6.38;2.20;;;;;;;;;;5095338;28;20058;-75
2023/05/16 04:41:04;;;;;;;9.73;2.92;;;;;;;;;;5107863;27;20059;-75
2023/05/16 04:43:29;;;;;;;10.50;2.60;;;;;;;;;;5108237;27;20081;-75
2023/05/16 04:45:57;;;;;;;9.23;2.15;;;;;;;;;;5107389;28;20041;-75
2023/05/16 04:48:22;;;;;;;8.20;2.72;;;;;;;;;;5104098;27;20587;-75
2023/05/16 04:50:48;;;;;;;12.40;3.28;;;;;;;;;;5096531;27;20031;-75
2023/05/16 04:53:13;;;;;;;11.95;3.00;;;;;;;;;;5109231;28;20027;-75
2023/05/16 04:55:39;;;;;;;8.85;2.53;;;;;;;;;;5114037;27;20036;-75
2023/05/16 04:58:05;;;;;;;8.68;2.90;;;;;;;;;;5108376;27;20043;-75
2023/05/16 05:00:30;;;;;;;11.20;2.55;;;;;;;;;;5105564;27;20480;-75
2023/05/16 05:02:56;;;;;;;8.27;2.08;;;;;;;;;;5100966;27;20401;-75
2023/05/16 05:05:21;;;;;;;12.98;3.20;;;;;;;;;;5103070;28;20016;-75
2023/05/16 05:07:47;;;;;;;14.43;2.67;;;;;;;;;;5102948;27;20061;-75
2023/05/16 05:10:12;;;;;;;8.07;2.33;;;;;;;;;;5106371;27;20042;-75
2023/05/16 05:12:38;;;;;;;5.28;2.28;;;;;;;;;;5106345;27;20043;-75
2023/05/16 05:15:05;;;;;;;8.73;2.03;;;;;;;;;;5105954;27;20492;-75
2023/05/16 05:17:30;;;;;;;7.78;2.45;;;;;;;;;;5105388;27;20028;-75
2023/05/16 05:19:56;;;;;;;7.38;2.08;;;;;;;;;;5095748;27;20030;-75
2023/05/16 05:22:21;;;;;;;9.43;3.08;;;;;;;;;;5103745;28;20026;-75
2023/05/16 05:24:46;;;;;;;6.03;2.90;;;;;;;;;;5105206;28;20035;-75
2023/05/16 05:27:12;;;;;;;8.15;2.65;;;;;;;;;;5106698;27;20028;-75
2023/05/16 05:29:38;;;;;;;7.03;2.28;;;;;;;;;;5105747;28;20024;-75
2023/05/16 05:32:03;;;;;;;8.55;2.47;;;;;;;;;;5106516;27;20035;-75
2023/05/16 05:34:29;;;;;;;9.18;2.25;;;;;;;;;;5112212;27;20039;-75
2023/05/16 05:36:55;;;;;;;8.88;2.15;;;;;;;;;;5099610;28;20066;-75
2023/05/16 05:39:20;;;;;;;7.38;2.45;;;;;;;;;;5094598;28;20417;-75
2023/05/16 05:41:46;;;;;;;13.30;2.67;;;;;;;;;;5094130;27;20515;-75
2023/05/16 05:44:11;;;;;;;5.95;2.63;;;;;;;;;;5106198;28;20011;-75
2023/05/16 05:46:37;;;;;;;10.40;2.95;;;;;;;;;;5100641;27;20036;-75
2023/05/16 05:49:02;;;;;;;7.55;2.92;;;;;;;;;;5106322;27;20074;-75
2023/05/16 05:51:28;;;;;;;15.35;3.88;;;;;;;;;;5106276;27;20535;-76
2023/05/16 05:53:54;;;;;;;15.32;3.60;;;;;;;;;;5104070;28;20024;-75
2023/05/16 05:56:20;;;;;;;14.00;3.97;;;;;;;;;;5103494;28;20015;-75
2023/05/16 05:58:46;;;;;;;11.15;3.22;;;;;;;;;;5103518;27;20046;-76
2023/05/16 06:01:11;;;;;;;16.60;4.28;;;;;;;;;;5101441;28;20139;-75
2023/05/16 06:03:37;;;;;;;12.32;3.70;;;;;;;;;;5102664;28;20035;-76
2023/05/16 06:06:03;;;;;;;13.15;3.72;;;;;;;;;;5105554;27;20036;-75
2023/05/16 06:08:28;;;;;;;12.43;3.67;;;;;;;;;;5097759;28;20004;-76
2023/05/16 06:10:54;;;;;;;16.67;3.72;;;;;;;;;;5084982;28;20582;-76
2023/05/16 06:13:20;;;;;;;8.82;2.95;;;;;;;;;;5106650;27;20040;-76
2023/05/16 06:15:53;;;;;;;11.95;2.72;;;;;;;;;;5106700;27;20042;-76
2023/05/16 06:18:22;;;;;;;9.30;2.72;;;;;;;;;;5113628;27;20032;-76
2023/05/16 06:20:47;;;;;;;5.97;2.30;;;;;;;;;;5109008;27;20072;-75
2023/05/16 06:23:12;;;;;;;8.32;2.35;;;;;;;;;;5106258;28;20007;-76
2023/05/16 06:25:38;;;;;;;11.48;2.97;;;;;;;;;;5105418;27;20032;-76
2023/05/16 06:28:03;;;;;;;10.60;2.78;;;;;;;;;;5106248;27;20116;-76
2023/05/16 06:30:29;;;;;;;10.45;2.95;;;;;;;;;;5097000;28;20042;-76
2023/05/16 06:32:54;;;;;;;6.55;2.33;;;;;;;;;;5089668;27;20074;-75
2023/05/16 06:35:20;;;;;;;10.95;3.00;;;;;;;;;;5101803;28;20098;-76
2023/05/16 06:37:45;;;;;;;10.82;3.38;;;;;;;;;;5098236;28;20032;-75
2023/05/16 06:40:11;;;;;;;9.32;3.03;;;;;;;;;;5097513;27;20032;-75
2023/05/16 06:42:36;;;;;;;11.57;2.70;;;;;;;;;;5088519;27;20476;-76
2023/05/16 06:45:02;;;;;;;14.02;3.78;;;;;;;;;;5093470;28;20034;-75
2023/05/16 06:47:27;;;;;;;16.08;4.00;;;;;;;;;;5093426;28;20023;-76
2023/05/16 06:49:53;;;;;;;19.30;3.50;;;;;;;;;;5095646;28;20039;-76
2023/05/16 06:52:18;;;;;;;13.98;3.97;;;;;;;;;;5098271;28;20028;-76
2023/05/16 06:54:44;;;;;;;8.60;3.53;;;;;;;;;;5098317;27;20043;-75
2023/05/16 06:57:09;;;;;;;12.48;3.63;;;;;;;;;;5092406;27;20036;-75
2023/05/16 06:59:35;;;;;;;12.05;3.65;;;;;;;;;;5093916;28;20106;-75
2023/05/16 07:02:01;;;;;;;13.15;3.38;;;;;;;;;;5090770;27;20040;-75
2023/05/16 07:04:26;;;;;;;12.13;3.35;;;;;;;;;;5087652;27;20046;-75
2023/05/16 07:06:52;;;;;;;13.52;3.58;;;;;;;;;;5093151;27;20035;-75
2023/05/16 07:09:18;;;;;;;14.05;3.83;;;;;;;;;;5093671;28;20345;-76
2023/05/16 07:11:44;;;;;;;12.90;3.60;;;;;;;;;;5097302;27;20028;-77
2023/05/16 07:14:10;;;;;;;9.02;3.33;;;;;;;;;;5088764;28;20102;-74
2023/05/16 07:16:35;;;;;;;17.75;3.58;;;;;;;;;;5089703;27;20124;-75
2023/05/16 07:19:00;;;;;;;15.13;4.13;;;;;;;;;;5099636;27;20123;-75
2023/05/16 07:21:26;;;;;;;13.60;4.78;;;;;;;;;;5094065;27;20082;-75
2023/05/16 07:23:51;;;;;;;12.88;3.95;;;;;;;;;;5106204;27;20023;-75
2023/05/16 07:26:17;;;;;;;10.93;3.58;;;;;;;;;;5098058;27;20033;-75
2023/05/16 07:28:43;;;;;;;13.35;3.47;;;;;;;;;;5104397;28;20042;-75
2023/05/16 07:31:08;;;;;;;11.73;3.97;;;;;;;;;;5104898;27;20500;-75
2023/05/16 07:33:33;;;;;;;13.77;3.13;;;;;;;;;;5101238;27;20032;-74
2023/05/16 07:36:00;;;;;;;6.13;2.72;;;;;;;;;;5111291;27;20026;-74
2023/05/16 07:38:25;;;;;;;9.77;2.92;;;;;;;;;;5101680;28;20093;-74
2023/05/16 07:40:51;;;;;;;5.32;2.58;;;;;;;;;;5116518;28;20035;-74
2023/05/16 07:43:17;;;;;;;13.23;3.53;;;;;;;;;;5115589;27;20028;-74
2023/05/16 07:45:42;;;;;;;10.23;2.75;;;;;;;;;;5106735;28;20031;-74
2023/05/16 07:48:07;;;;;;;9.48;2.53;;;;;;;;;;5103049;27;20547;-74
2023/05/16 07:50:33;;;;;;;8.18;2.25;;;;;;;;;;5086880;27;20024;-72
2023/05/16 07:52:58;;;;;;;5.85;2.00;;;;;;;;;;5098805;27;20062;-72
2023/05/16 07:55:24;;;;;;;8.93;2.50;;;;;;;;;;5095854;27;20055;-73
2023/05/16 07:57:49;;;;;;;5.70;2.17;;;;;;;;;;5092528;28;20036;-70
2023/05/16 08:00:16;;;;;;;3.78;1.85;;;;;;;;;;5090418;27;20121;-73
2023/05/16 08:02:41;;;;;;;7.13;1.80;;;;;;;;;;5096111;27;20024;-72
2023/05/16 08:05:07;;;;;;;5.55;1.75;;;;;;;;;;5104466;27;20042;-72
2023/05/16 08:07:33;;;;;;;4.93;2.03;;;;;;;;;;5099475;27;20034;-75
2023/05/16 08:09:58;;;;;;;4.45;1.55;;;;;;;;;;5106491;27;20035;-76
2023/05/16 08:12:24;;;;;;;9.73;1.75;;;;;;;;;;5104259;27;20127;-75
2023/05/16 08:14:49;;;;;;;5.40;1.75;;;;;;;;;;5108146;27;20025;-75
2023/05/16 08:17:15;;;;;;;5.60;1.45;;;;;;;;;;5100910;27;20050;-76
2023/05/16 08:19:40;;;;;;;6.95;2.13;;;;;;;;;;5105913;27;20044;-74
2023/05/16 08:22:07;;;;;;;6.97;2.17;;;;;;;;;;5100441;28;20034;-74
2023/05/16 08:24:33;;;;;;;7.75;1.40;;;;;;;;;;5101349;27;20031;-72
2023/05/16 08:26:58;;;;;;;7.53;2.70;;;;;;;;;;5098131;27;20027;-72
2023/05/16 08:29:24;;;;;;;7.28;2.53;;;;;;;;;;5106187;28;20522;-72
2023/05/16 08:31:49;;;;;;;7.75;1.27;;;;;;;;;;5099127;27;20051;-72
2023/05/16 08:34:14;;;;;;;4.03;1.23;;;;;;;;;;5103973;27;20054;-71
2023/05/16 08:36:40;;;;;;;5.45;1.10;;;;;;;;;;5104437;27;20039;-72
2023/05/16 08:39:06;;;;;;;1.75;1.08;;;;;;;;;;5095215;28;20043;-72
2023/05/16 08:41:31;;;;;;;5.05;1.25;;;;;;;;;;5102601;28;20016;-72
2023/05/16 08:43:57;;;;;;;3.75;1.30;;;;;;;;;;5104841;27;20035;-72
2023/05/16 08:46:23;;;;;;;5.07;2.17;;;;;;;;;;5093147;27;20089;-72
2023/05/16 08:48:53;;;;;;;8.85;2.95;;;;;;;;;;5104180;28;20069;-72
2023/05/16 08:51:20;;;;;;;6.70;2.97;;;;;;;;;;5105407;27;20028;-72
2023/05/16 08:53:56;;;;;;;8.13;2.10;;;;;;;;;;5105158;27;20111;-72
2023/05/16 08:56:22;;;;;;;4.40;2.17;;;;;;;;;;5104642;28;20019;-72
2023/05/16 08:58:50;;;;;;;8.68;2.67;;;;;;;;;;5105617;28;20071;-72
2023/05/16 09:01:16;;;;;;;7.97;2.40;;;;;;;;;;5111320;27;20043;-72
2023/05/16 09:03:42;;;;;;;6.75;3.00;;;;;;;;;;5113011;28;20043;-72
2023/05/16 09:06:07;;;;;;;5.47;1.90;;;;;;;;;;5105669;27;20028;-72
2023/05/16 09:08:33;;;;;;;6.30;2.60;;;;;;;;;;5105392;28;20028;-72
2023/05/16 09:11:00;;;;;;;9.57;2.85;;;;;;;;;;5097940;27;20127;-72
2023/05/16 09:13:25;;;;;;;8.13;2.45;;;;;;;;;;5088808;28;20126;-72
2023/05/16 09:16:11;;;;;;;7.38;2.45;;;;;;;;;;5091564;28;20515;-72
2023/05/16 09:18:39;;;;;;;9.27;3.20;;;;;;;;;;5094219;27;20559;-72
2023/05/16 09:21:05;;;;;;;6.28;2.60;;;;;;;;;;5102506;27;20084;-72
2023/05/16 09:23:32;;;;;;;8.60;3.28;;;;;;;;;;5104150;28;20031;-73
2023/05/16 09:25:57;;;;;;;5.30;2.30;;;;;;;;;;5102983;27;20070;-73
2023/05/16 09:28:24;;;;;;;4.03;1.73;;;;;;;;;;5094928;27;20124;-75
2023/05/16 09:30:51;;;;;;;6.47;2.25;;;;;;;;;;5101765;27;20176;-74
2023/05/16 09:33:17;;;;;;;5.10;1.55;;;;;;;;;;5097960;27;20886;-74
2023/05/16 09:35:42;;;;;;;6.80;1.77;;;;;;;;;;5104158;27;20019;-76
2023/05/16 09:38:14;;;;;;;4.35;1.67;;;;;;;;;;5093836;28;20100;-73
2023/05/16 09:40:43;;;;;;;5.53;1.98;;;;;;;;;;5093541;28;20042;-73
2023/05/16 09:43:08;;;;;;;4.03;1.80;;;;;;;;;;5103549;27;20036;-73
2023/05/16 09:45:35;;;;;;;2.35;1.65;;;;;;;;;;5104591;27;20097;-73
2023/05/16 09:48:06;;;;;;;5.93;2.95;;;;;;;;;;5103245;27;20015;-73
2023/05/16 09:50:36;;;;;;;2.78;1.52;;;;;;;;;;5102908;28;20026;-73
2023/05/16 09:53:02;;;;;;;4.93;1.48;;;;;;;;;;5103332;27;20043;-73
2023/05/16 09:55:27;;;;;;;3.13;1.20;;;;;;;;;;5099940;28;20036;-73
2023/05/16 09:57:53;;;;;;;6.18;1.35;;;;;;;;;;5100308;28;20039;-73
2023/05/16 10:00:18;;;;;;;2.20;1.60;;;;;;;;;;5099040;27;20665;-73
2023/05/16 10:02:44;;;;;;;7.15;2.30;;;;;;;;;;5102639;27;20042;-73
2023/05/16 10:05:10;;;;;;;4.00;1.58;;;;;;;;;;5103805;28;20020;-73
2023/05/16 10:07:37;;;;;;;5.88;1.90;;;;;;;;;;5103798;27;20080;-73
2023/05/16 10:10:09;;;;;;;7.25;2.35;;;;;;;;;;5100826;28;20054;-73
2023/05/16 10:12:36;;;;;;;4.38;1.85;;;;;;;;;;5101213;27;20031;-73
2023/05/16 10:15:04;;;;;;;6.88;2.42;;;;;;;;;;5097466;27;20501;-73
2023/05/16 10:17:33;;;;;;;3.78;1.95;;;;;;;;;;5095679;28;20439;-76
2023/05/16 10:20:04;;;;;;;6.63;2.70;;;;;;;;;;5101578;28;20035;-73
2023/05/16 10:22:33;;;;;;;8.02;2.83;;;;;;;;;;5095156;28;20032;-73
2023/05/16 10:25:09;;;;;;;8.82;3.00;;;;;;;;;;5102485;28;20035;-71
2023/05/16 10:27:35;;;;;;;5.70;3.17;;;;;;;;;;5108287;27;20096;-71
2023/05/16 10:30:01;;;;;;;5.90;2.78;;;;;;;;;;5103768;27;20019;-71
2023/05/16 10:32:27;;;;;;;6.63;3.00;;;;;;;;;;5102420;28;20042;-71
2023/05/16 10:34:54;;;;;;;6.40;2.60;;;;;;;;;;5103022;28;20066;-71
2023/05/16 10:37:20;;;;;;;3.00;1.67;;;;;;;;;;5103244;27;20035;-71
2023/05/16 10:39:46;;;;;;;3.25;1.80;;;;;;;;;;5087598;28;20043;-71
2023/05/16 10:42:16;;;;;;;4.82;1.77;;;;;;;;;;5100787;28;20396;-71
2023/05/16 10:44:42;;;;;;;5.50;2.50;;;;;;;;;;5105337;27;20546;-71
2023/05/16 10:47:07;;;;;;;5.22;2.47;;;;;;;;;;5107534;28;20015;-71
2023/05/16 10:49:33;;;;;;;2.95;1.65;;;;;;;;;;5107025;27;20111;-71
2023/05/16 10:52:09;;;;;;;8.90;2.38;;;;;;;;;;5105666;27;20044;-72
2023/05/16 10:54:52;;;;;;;8.20;2.40;;;;;;;;;;5104992;28;20044;-71
2023/05/16 10:57:22;;;;;;;4.28;1.70;;;;;;;;;;5107236;27;20063;-71
2023/05/16 10:59:49;;;;;;;3.95;2.58;;;;;;;;;;5103119;28;20506;-71
2023/05/16 11:02:28;;;;;;;4.53;2.60;;;;;;;;;;5099897;27;20526;-71
2023/05/16 11:04:56;;;;;;;4.00;2.45;;;;;;;;;;5107782;27;20074;-71
2023/05/16 11:07:23;;;;;;;2.08;1.10;;;;;;;;;;5106786;27;20024;-71
2023/05/16 11:10:06;;;;;;;3.30;1.90;;;;;;;;;;5101700;27;20059;-71
2023/05/16 11:12:48;;;;;;;6.45;2.58;;;;;;;;;;5097838;27;20040;-72
2023/05/16 11:15:23;;;;;;;6.68;3.78;;;;;;;;;;5108750;27;20054;-71
2023/05/16 11:17:49;;;;;;;5.18;3.13;;;;;;;;;;5099684;27;20027;-71
2023/05/16 11:20:30;;;;;;;6.28;3.42;;;;;;;;;;5091511;27;20067;-72
2023/05/16 11:23:14;;;;;;;6.95;2.63;;;;;;;;;;5090576;27;20036;-71
2023/05/16 11:25:40;;;;;;;4.38;2.05;;;;;;;;;;5089283;27;20031;-72
2023/05/16 11:28:07;;;;;;;3.47;1.77;;;;;;;;;;5088124;27;20020;-72
2023/05/16 11:30:33;;;;;;;3.75;2.03;;;;;;;;;;5094750;27;20764;-72
2023/05/16 11:32:58;;;;;;;3.97;1.92;;;;;;;;;;5105063;27;20034;-72
2023/05/16 11:35:24;;;;;;;3.63;2.22;;;;;;;;;;5114183;27;20043;-72
2023/05/16 11:37:50;;;;;;;4.13;1.80;;;;;;;;;;5106732;28;20695;-72
2023/05/16 11:40:15;;;;;;;3.40;1.80;;;;;;;;;;5093558;28;20028;-72
2023/05/16 11:42:46;;;;;;;4.18;1.90;;;;;;;;;;5101882;27;20544;-72
2023/05/16 11:45:16;;;;;;;5.07;2.72;;;;;;;;;;5099073;27;20035;-72
2023/05/16 11:47:46;;;;;;;6.88;3.03;;;;;;;;;;5115707;28;20027;-72
2023/05/16 11:50:15;;;;;;;4.97;2.88;;;;;;;;;;5093494;28;20138;-72
2023/05/16 11:52:46;;;;;;;5.72;2.65;;;;;;;;;;5092332;27;20030;-72
2023/05/16 11:55:13;;;;;;;4.55;3.00;;;;;;;;;;5099649;27;20035;-72
2023/05/16 11:57:40;;;;;;;6.13;3.38;;;;;;;;;;5106383;27;20036;-72
2023/05/16 12:00:17;;;;;;;6.38;2.80;;;;;;;;;;5103142;27;20512;-72
2023/05/16 12:02:49;;;;;;;6.43;3.00;;;;;;;;;;5099476;27;20031;-73
2023/05/16 12:05:16;;;;;;;6.45;3.22;;;;;;;;;;5086848;28;20575;-72
2023/05/16 12:07:46;;;;;;;8.43;3.55;;;;;;;;;;5105750;27;20027;-72
2023/05/16 12:10:15;;;;;;;9.65;3.60;;;;;;;;;;5106068;27;20071;-72
2023/05/16 12:12:44;;;;;;;8.20;3.20;;;;;;;;;;5104429;28;20082;-72
2023/05/16 12:15:10;;;;;;;7.43;2.65;;;;;;;;;;5103758;27;20069;-72
2023/05/16 12:17:37;;;;;;;6.28;2.13;;;;;;;;;;5096959;28;20036;-72
2023/05/16 12:20:10;;;;;;;3.92;2.15;;;;;;;;;;5092048;27;20457;-72
2023/05/16 12:22:38;;;;;;;4.82;1.85;;;;;;;;;;5104393;28;20415;-73
2023/05/16 12:25:26;;;;;;;3.95;1.98;;;;;;;;;;5103392;28;20032;-72
2023/05/16 12:28:00;;;;;;;4.60;2.92;;;;;;;;;;5106115;27;20066;-72
2023/05/16 12:30:27;;;;;;;5.10;1.80;;;;;;;;;;5096617;27;20066;-72
2023/05/16 12:33:07;;;;;;;5.32;1.90;;;;;;;;;;5105928;27;20081;-72
2023/05/16 12:35:33;;;;;;;5.40;2.30;;;;;;;;;;5114092;27;20031;-72
2023/05/16 12:38:10;;;;;;;3.35;1.58;;;;;;;;;;5104541;27;20594;-72
2023/05/16 12:40:40;;;;;;;4.75;1.98;;;;;;;;;;5105894;27;20042;-72
2023/05/16 12:43:22;;;;;;;7.05;1.90;;;;;;;;;;5096835;27;20043;-72
2023/05/16 12:45:52;;;;;;;4.25;1.80;;;;;;;;;;5105017;27;20089;-72
2023/05/16 12:48:17;;;;;;;3.50;1.88;;;;;;;;;;5105324;27;20875;-72
2023/05/16 12:50:45;;;;;;;2.50;1.27;;;;;;;;;;5094651;28;20032;-72
2023/05/16 12:53:15;;;;;;;2.63;1.20;;;;;;;;;;5094432;28;20019;-72
2023/05/16 12:55:42;;;;;;;2.90;1.70;;;;;;;;;;5105297;27;20066;-72
2023/05/16 12:58:08;;;;;;;7.90;2.15;;;;;;;;;;5099089;27;20035;-73
2023/05/16 13:00:35;;;;;;;3.97;1.40;;;;;;;;;;5097222;27;20167;-73
2023/05/16 13:03:01;;;;;;;4.43;1.52;;;;;;;;;;5095425;27;20988;-73
2023/05/16 13:05:26;;;;;;;4.78;1.40;;;;;;;;;;5110858;27;20053;-72
2023/05/16 13:07:51;;;;;;;2.13;1.50;;;;;;;;;;5100217;27;20062;-73
2023/05/16 13:10:18;;;;;;;3.13;1.85;;;;;;;;;;5100173;27;21336;-73
2023/05/16 13:12:43;;;;;;;3.75;2.22;;;;;;;;;;5105147;28;20035;-73
2023/05/16 13:15:10;;;;;;;4.45;2.38;;;;;;;;;;5102578;27;20038;-73
2023/05/16 13:17:42;;;;;;;6.50;2.55;;;;;;;;;;5095833;27;20031;-73
2023/05/16 13:20:10;;;;;;;5.30;2.90;;;;;;;;;;5097746;27;20043;-73
2023/05/16 13:22:36;;;;;;;5.90;2.80;;;;;;;;;;5091547;28;20508;-73
2023/05/16 13:25:03;;;;;;;5.95;3.00;;;;;;;;;;5104381;27;20111;-73
2023/05/16 13:27:29;;;;;;;3.47;2.50;;;;;;;;;;5099392;27;20054;-73
2023/05/16 13:29:54;;;;;;;3.55;2.63;;;;;;;;;;5099309;27;20169;-73
2023/05/16 13:32:19;;;;;;;5.45;2.42;;;;;;;;;;5096463;27;20477;-73
2023/05/16 13:34:45;;;;;;;5.88;2.80;;;;;;;;;;5093353;27;20036;-72
2023/05/16 13:37:10;;;;;;;5.65;2.70;;;;;;;;;;5088792;27;20031;-72
2023/05/16 13:39:36;;;;;;;4.78;2.60;;;;;;;;;;5089790;28;20464;-73
2023/05/16 13:42:02;;;;;;;8.25;2.70;;;;;;;;;;5104362;27;20034;-73
2023/05/16 13:44:27;;;;;;;7.55;2.35;;;;;;;;;;5096217;27;20404;-73
2023/05/16 13:46:53;;;;;;;5.43;2.60;;;;;;;;;;5103399;27;20488;-72
2023/05/16 13:49:18;;;;;;;4.50;2.42;;;;;;;;;;5103992;27;20032;-73
2023/05/16 13:51:43;;;;;;;5.75;2.95;;;;;;;;;;5099760;27;20557;-73
2023/05/16 13:54:09;;;;;;;4.18;2.35;;;;;;;;;;5102595;27;20039;-73
2023/05/16 13:56:34;;;;;;;3.10;1.92;;;;;;;;;;5099844;27;20028;-73
2023/05/16 13:58:59;;;;;;;5.88;2.50;;;;;;;;;;5094991;27;20468;-73
2023/05/16 14:01:25;;;;;;;5.15;2.28;;;;;;;;;;5085299;27;20139;-73
2023/05/16 14:03:50;;;;;;;5.35;1.92;;;;;;;;;;5088738;27;20036;-73
2023/05/16 14:06:16;;;;;;;7.60;2.30;;;;;;;;;;5091522;28;20036;-73
2023/05/16 14:08:41;;;;;;;4.70;2.03;;;;;;;;;;5098544;28;20038;-73
2023/05/16 14:11:06;;;;;;;6.47;1.83;;;;;;;;;;5095313;28;20581;-72
2023/05/16 14:13:32;;;;;;;4.10;1.40;;;;;;;;;;5091756;28;20031;-73
2023/05/16 14:15:57;;;;;;;4.55;1.63;;;;;;;;;;5086852;28;20485;-73
2023/05/16 14:18:22;;;;;;;5.15;1.90;;;;;;;;;;5080391;28;20078;-73
2023/05/16 14:20:49;;;;;;;2.97;1.27;;;;;;;;;;5085481;27;20054;-73
2023/05/16 14:23:15;;;;;;;2.17;1.60;;;;;;;;;;5091038;27;20053;-73
2023/05/16 14:25:41;;;;;;;4.30;1.83;;;;;;;;;;5089273;28;20039;-73
2023/05/16 14:28:06;;;;;;;3.58;1.83;;;;;;;;;;5089099;28;20058;-73
2023/05/16 14:30:32;;;;;;;5.60;1.65;;;;;;;;;;5095662;27;20036;-79
2023/05/16 14:32:58;;;;;;;4.35;1.33;;;;;;;;;;5095770;28;20096;-74
2023/05/16 14:35:23;;;;;;;3.97;1.40;;;;;;;;;;5090914;27;20073;-75
2023/05/16 14:37:49;;;;;;;1.52;1.00;;;;;;;;;;5091281;27;20046;-73